sensor_id;sensor_type;location;lat;lon;timestamp;temperature;humidity
46676;DHT22;32412;51.478;5.694;2023-07-16T00:00:52;17.30;99.90
46676;DHT22;32412;51.478;5.694;2023-07-16T00:03:18;17.40;99.90
46676;DHT22;32412;51.478;5.694;2023-07-16T00:05:43;17.30;99.90
46676;DHT22;32412;51.478;5.694;2023-07-16T00:08:09;17.30;99.90
46676;DHT22;32412;51.478;5.694;2023-07-16T00:10:36;17.20;99.90
46676;DHT22;32412;51.478;5.694;2023-07-16T00:13:04;17.20;99.90
46676;DHT22;32412;51.478;5.694;2023-07-16T00:15:30;17.20;99.90
46676;DHT22;32412;51.478;5.694;2023-07-16T00:17:56;17.20;99.90
46676;DHT22;32412;51.478;5.694;2023-07-16T00:20:22;17.20;99.90
46676;DHT22;32412;51.478;5.694;2023-07-16T00:22:49;17.10;99.90
46676;DHT22;32412;51.478;5.694;2023-07-16T00:25:15;17.10;99.90
46676;DHT22;32412;51.478;5.694;2023-07-16T00:27:41;17.00;99.90
46676;DHT22;32412;51.478;5.694;2023-07-16T00:30:08;17.10;99.90
46676;DHT22;32412;51.478;5.694;2023-07-16T00:32:34;17.10;99.90
46676;DHT22;32412;51.478;5.694;2023-07-16T00:35:01;17.10;99.90
46676;DHT22;32412;51.478;5.694;2023-07-16T00:37:26;17.00;99.90
46676;DHT22;32412;51.478;5.694;2023-07-16T00:39:52;17.00;99.90
46676;DHT22;32412;51.478;5.694;2023-07-16T00:42:18;16.90;99.90
46676;DHT22;32412;51.478;5.694;2023-07-16T00:44:43;16.90;99.90
46676;DHT22;32412;51.478;5.694;2023-07-16T00:47:09;16.90;99.90
46676;DHT22;32412;51.478;5.694;2023-07-16T00:49:36;16.90;99.90
46676;DHT22;32412;51.478;5.694;2023-07-16T00:52:02;16.80;99.90
46676;DHT22;32412;51.478;5.694;2023-07-16T00:54:32;16.80;99.90
46676;DHT22;32412;51.478;5.694;2023-07-16T00:56:58;16.80;99.90
46676;DHT22;32412;51.478;5.694;2023-07-16T00:59:24;16.90;99.90
46676;DHT22;32412;51.478;5.694;2023-07-16T01:01:49;16.90;99.90
46676;DHT22;32412;51.478;5.694;2023-07-16T01:04:15;16.90;99.90
46676;DHT22;32412;51.478;5.694;2023-07-16T01:06:45;16.90;99.90
46676;DHT22;32412;51.478;5.694;2023-07-16T01:09:19;16.90;99.90
46676;DHT22;32412;51.478;5.694;2023-07-16T01:11:46;16.90;99.90
46676;DHT22;32412;51.478;5.694;2023-07-16T01:14:13;16.90;99.90
46676;DHT22;32412;51.478;5.694;2023-07-16T01:16:40;16.90;99.90
46676;DHT22;32412;51.478;5.694;2023-07-16T01:19:06;16.90;99.90
46676;DHT22;32412;51.478;5.694;2023-07-16T01:29:30;16.90;99.90
46676;DHT22;32412;51.478;5.694;2023-07-16T01:32:03;16.80;99.90
46676;DHT22;32412;51.478;5.694;2023-07-16T01:34:31;16.80;99.90
46676;DHT22;32412;51.478;5.694;2023-07-16T01:37:00;16.70;99.90
46676;DHT22;32412;51.478;5.694;2023-07-16T01:39:26;16.70;99.90
46676;DHT22;32412;51.478;5.694;2023-07-16T01:41:51;16.60;99.90
46676;DHT22;32412;51.478;5.694;2023-07-16T01:44:17;16.50;99.90
46676;DHT22;32412;51.478;5.694;2023-07-16T01:46:43;16.50;99.90
46676;DHT22;32412;51.478;5.694;2023-07-16T01:49:08;16.40;99.90
46676;DHT22;32412;51.478;5.694;2023-07-16T01:51:34;16.40;99.90
46676;DHT22;32412;51.478;5.694;2023-07-16T01:54:00;16.30;99.90
46676;DHT22;32412;51.478;5.694;2023-07-16T01:56:26;16.30;99.90
46676;DHT22;32412;51.478;5.694;2023-07-16T01:58:51;16.30;99.90
46676;DHT22;32412;51.478;5.694;2023-07-16T02:01:17;16.20;99.90
46676;DHT22;32412;51.478;5.694;2023-07-16T02:03:42;16.30;99.90
46676;DHT22;32412;51.478;5.694;2023-07-16T02:06:08;16.20;99.90
46676;DHT22;32412;51.478;5.694;2023-07-16T02:08:34;16.20;99.90
46676;DHT22;32412;51.478;5.694;2023-07-16T02:10:59;16.10;99.90
46676;DHT22;32412;51.478;5.694;2023-07-16T02:13:27;16.20;99.90
46676;DHT22;32412;51.478;5.694;2023-07-16T02:15:52;16.10;99.90
46676;DHT22;32412;51.478;5.694;2023-07-16T02:18:18;16.10;99.90
46676;DHT22;32412;51.478;5.694;2023-07-16T02:20:44;16.10;99.90
46676;DHT22;32412;51.478;5.694;2023-07-16T02:23:10;16.10;99.90
46676;DHT22;32412;51.478;5.694;2023-07-16T02:25:35;16.10;99.90
46676;DHT22;32412;51.478;5.694;2023-07-16T02:28:01;16.20;99.90
46676;DHT22;32412;51.478;5.694;2023-07-16T02:30:27;16.10;99.90
46676;DHT22;32412;51.478;5.694;2023-07-16T02:32:53;16.10;99.90
46676;DHT22;32412;51.478;5.694;2023-07-16T02:35:19;16.00;99.90
46676;DHT22;32412;51.478;5.694;2023-07-16T02:37:45;16.10;99.90
46676;DHT22;32412;51.478;5.694;2023-07-16T02:40:10;16.00;99.90
46676;DHT22;32412;51.478;5.694;2023-07-16T02:42:36;16.00;99.90
46676;DHT22;32412;51.478;5.694;2023-07-16T02:45:02;16.00;99.90
46676;DHT22;32412;51.478;5.694;2023-07-16T02:47:28;16.00;99.90
46676;DHT22;32412;51.478;5.694;2023-07-16T02:49:53;16.00;99.90
46676;DHT22;32412;51.478;5.694;2023-07-16T02:52:19;16.00;99.90
46676;DHT22;32412;51.478;5.694;2023-07-16T02:54:44;15.90;99.90
46676;DHT22;32412;51.478;5.694;2023-07-16T02:57:10;15.90;99.90
46676;DHT22;32412;51.478;5.694;2023-07-16T02:59:36;15.80;99.90
46676;DHT22;32412;51.478;5.694;2023-07-16T03:02:01;15.80;99.90
46676;DHT22;32412;51.478;5.694;2023-07-16T03:04:27;15.80;99.90
46676;DHT22;32412;51.478;5.694;2023-07-16T03:06:53;15.70;99.90
46676;DHT22;32412;51.478;5.694;2023-07-16T03:09:19;15.70;99.90
46676;DHT22;32412;51.478;5.694;2023-07-16T03:11:44;15.60;99.90
46676;DHT22;32412;51.478;5.694;2023-07-16T03:14:10;15.60;99.90
46676;DHT22;32412;51.478;5.694;2023-07-16T03:16:35;15.50;99.90
46676;DHT22;32412;51.478;5.694;2023-07-16T03:19:01;15.50;99.90
46676;DHT22;32412;51.478;5.694;2023-07-16T03:21:27;15.40;99.90
46676;DHT22;32412;51.478;5.694;2023-07-16T03:23:52;15.40;99.90
46676;DHT22;32412;51.478;5.694;2023-07-16T03:26:18;15.30;99.90
46676;DHT22;32412;51.478;5.694;2023-07-16T03:28:44;15.30;99.90
46676;DHT22;32412;51.478;5.694;2023-07-16T03:31:09;15.20;99.90
46676;DHT22;32412;51.478;5.694;2023-07-16T03:33:35;15.20;99.90
46676;DHT22;32412;51.478;5.694;2023-07-16T03:36:00;15.10;99.90
46676;DHT22;32412;51.478;5.694;2023-07-16T03:38:26;15.10;99.90
46676;DHT22;32412;51.478;5.694;2023-07-16T03:40:52;15.00;99.90
46676;DHT22;32412;51.478;5.694;2023-07-16T03:43:17;15.00;99.90
46676;DHT22;32412;51.478;5.694;2023-07-16T03:45:43;15.00;99.90
46676;DHT22;32412;51.478;5.694;2023-07-16T03:48:08;14.90;99.90
46676;DHT22;32412;51.478;5.694;2023-07-16T03:50:35;14.90;99.90
46676;DHT22;32412;51.478;5.694;2023-07-16T03:53:01;14.90;99.90
46676;DHT22;32412;51.478;5.694;2023-07-16T03:55:28;14.90;99.90
46676;DHT22;32412;51.478;5.694;2023-07-16T03:57:54;14.90;99.90
46676;DHT22;32412;51.478;5.694;2023-07-16T04:00:20;14.90;99.90
46676;DHT22;32412;51.478;5.694;2023-07-16T04:02:45;14.90;99.90
46676;DHT22;32412;51.478;5.694;2023-07-16T04:05:11;14.90;99.90
46676;DHT22;32412;51.478;5.694;2023-07-16T04:07:37;14.90;99.90
46676;DHT22;32412;51.478;5.694;2023-07-16T04:10:02;14.90;99.90
46676;DHT22;32412;51.478;5.694;2023-07-16T04:12:28;14.90;99.90
46676;DHT22;32412;51.478;5.694;2023-07-16T04:14:58;14.90;99.90
46676;DHT22;32412;51.478;5.694;2023-07-16T04:17:24;14.80;99.90
46676;DHT22;32412;51.478;5.694;2023-07-16T04:19:50;14.80;99.90
46676;DHT22;32412;51.478;5.694;2023-07-16T04:22:15;14.90;99.90
46676;DHT22;32412;51.478;5.694;2023-07-16T04:24:41;14.90;99.90
46676;DHT22;32412;51.478;5.694;2023-07-16T04:27:07;15.00;99.90
46676;DHT22;32412;51.478;5.694;2023-07-16T04:29:33;14.90;99.90
46676;DHT22;32412;51.478;5.694;2023-07-16T04:31:58;14.90;99.90
46676;DHT22;32412;51.478;5.694;2023-07-16T04:34:24;14.90;99.90
46676;DHT22;32412;51.478;5.694;2023-07-16T04:36:49;15.00;99.90
46676;DHT22;32412;51.478;5.694;2023-07-16T04:39:15;15.00;99.90
46676;DHT22;32412;51.478;5.694;2023-07-16T04:41:41;15.00;99.90
46676;DHT22;32412;51.478;5.694;2023-07-16T04:44:06;15.10;99.90
46676;DHT22;32412;51.478;5.694;2023-07-16T04:46:32;15.10;99.90
46676;DHT22;32412;51.478;5.694;2023-07-16T04:48:58;15.10;99.90
46676;DHT22;32412;51.478;5.694;2023-07-16T04:51:23;15.10;99.90
46676;DHT22;32412;51.478;5.694;2023-07-16T04:53:49;15.20;99.90
46676;DHT22;32412;51.478;5.694;2023-07-16T04:56:15;15.20;99.90
46676;DHT22;32412;51.478;5.694;2023-07-16T04:58:42;15.30;99.90
46676;DHT22;32412;51.478;5.694;2023-07-16T05:01:08;15.30;99.90
46676;DHT22;32412;51.478;5.694;2023-07-16T05:03:34;15.30;99.90
46676;DHT22;32412;51.478;5.694;2023-07-16T05:06:00;15.30;99.90
46676;DHT22;32412;51.478;5.694;2023-07-16T05:08:26;15.40;99.90
46676;DHT22;32412;51.478;5.694;2023-07-16T05:10:52;15.40;99.90
46676;DHT22;32412;51.478;5.694;2023-07-16T05:13:17;15.40;99.90
46676;DHT22;32412;51.478;5.694;2023-07-16T05:15:46;15.50;99.90
46676;DHT22;32412;51.478;5.694;2023-07-16T05:18:12;15.50;99.90
46676;DHT22;32412;51.478;5.694;2023-07-16T05:20:37;15.60;99.90
46676;DHT22;32412;51.478;5.694;2023-07-16T05:23:03;15.60;99.90
46676;DHT22;32412;51.478;5.694;2023-07-16T05:25:29;15.70;99.90
46676;DHT22;32412;51.478;5.694;2023-07-16T05:27:55;15.70;99.90
46676;DHT22;32412;51.478;5.694;2023-07-16T05:30:20;15.80;99.90
46676;DHT22;32412;51.478;5.694;2023-07-16T05:32:46;15.80;99.90
46676;DHT22;32412;51.478;5.694;2023-07-16T05:35:12;15.90;99.90
46676;DHT22;32412;51.478;5.694;2023-07-16T05:37:37;16.00;99.90
46676;DHT22;32412;51.478;5.694;2023-07-16T05:40:04;16.10;99.90
46676;DHT22;32412;51.478;5.694;2023-07-16T05:42:29;16.10;99.90
46676;DHT22;32412;51.478;5.694;2023-07-16T05:44:55;16.10;99.90
46676;DHT22;32412;51.478;5.694;2023-07-16T05:47:21;16.20;99.90
46676;DHT22;32412;51.478;5.694;2023-07-16T05:49:47;16.30;99.90
46676;DHT22;32412;51.478;5.694;2023-07-16T05:52:13;16.40;99.90
46676;DHT22;32412;51.478;5.694;2023-07-16T05:54:38;16.50;99.90
46676;DHT22;32412;51.478;5.694;2023-07-16T05:57:04;16.50;99.90
46676;DHT22;32412;51.478;5.694;2023-07-16T05:59:30;16.60;99.90
46676;DHT22;32412;51.478;5.694;2023-07-16T06:01:59;16.70;99.90
46676;DHT22;32412;51.478;5.694;2023-07-16T06:04:25;16.70;99.90
46676;DHT22;32412;51.478;5.694;2023-07-16T06:06:51;16.80;99.90
46676;DHT22;32412;51.478;5.694;2023-07-16T06:09:16;16.90;99.90
46676;DHT22;32412;51.478;5.694;2023-07-16T06:11:42;16.90;99.90
46676;DHT22;32412;51.478;5.694;2023-07-16T06:14:08;17.00;99.90
46676;DHT22;32412;51.478;5.694;2023-07-16T06:16:34;17.10;99.90
46676;DHT22;32412;51.478;5.694;2023-07-16T06:19:00;17.20;99.90
46676;DHT22;32412;51.478;5.694;2023-07-16T06:21:25;17.20;99.90
46676;DHT22;32412;51.478;5.694;2023-07-16T06:23:51;17.30;99.90
46676;DHT22;32412;51.478;5.694;2023-07-16T06:26:16;17.30;99.90
46676;DHT22;32412;51.478;5.694;2023-07-16T06:28:42;17.40;99.90
46676;DHT22;32412;51.478;5.694;2023-07-16T06:31:08;17.50;99.90
46676;DHT22;32412;51.478;5.694;2023-07-16T06:33:33;17.50;99.90
46676;DHT22;32412;51.478;5.694;2023-07-16T06:35:59;17.50;99.90
46676;DHT22;32412;51.478;5.694;2023-07-16T06:38:25;17.50;99.90
46676;DHT22;32412;51.478;5.694;2023-07-16T06:40:51;17.60;99.90
46676;DHT22;32412;51.478;5.694;2023-07-16T06:43:17;17.70;99.90
46676;DHT22;32412;51.478;5.694;2023-07-16T06:45:43;17.80;99.90
46676;DHT22;32412;51.478;5.694;2023-07-16T06:48:09;17.90;99.90
46676;DHT22;32412;51.478;5.694;2023-07-16T06:50:35;18.00;99.90
46676;DHT22;32412;51.478;5.694;2023-07-16T06:53:01;18.10;99.90
46676;DHT22;32412;51.478;5.694;2023-07-16T06:55:26;18.30;99.90
46676;DHT22;32412;51.478;5.694;2023-07-16T06:57:52;18.40;99.90
46676;DHT22;32412;51.478;5.694;2023-07-16T07:00:18;18.40;99.90
46676;DHT22;32412;51.478;5.694;2023-07-16T07:02:44;18.50;99.90
46676;DHT22;32412;51.478;5.694;2023-07-16T07:05:09;18.50;99.90
46676;DHT22;32412;51.478;5.694;2023-07-16T07:07:35;18.70;99.90
46676;DHT22;32412;51.478;5.694;2023-07-16T07:10:01;18.80;99.90
46676;DHT22;32412;51.478;5.694;2023-07-16T07:12:27;18.90;99.90
46676;DHT22;32412;51.478;5.694;2023-07-16T07:14:52;18.90;99.90
46676;DHT22;32412;51.478;5.694;2023-07-16T07:17:18;18.80;99.90
46676;DHT22;32412;51.478;5.694;2023-07-16T07:19:44;18.90;99.90
46676;DHT22;32412;51.478;5.694;2023-07-16T07:22:10;18.90;99.90
46676;DHT22;32412;51.478;5.694;2023-07-16T07:24:36;19.00;99.90
46676;DHT22;32412;51.478;5.694;2023-07-16T07:27:02;19.10;99.90
46676;DHT22;32412;51.478;5.694;2023-07-16T07:29:27;19.20;99.90
46676;DHT22;32412;51.478;5.694;2023-07-16T07:31:54;19.30;99.90
46676;DHT22;32412;51.478;5.694;2023-07-16T07:34:20;19.50;99.90
46676;DHT22;32412;51.478;5.694;2023-07-16T07:36:46;19.60;99.90
46676;DHT22;32412;51.478;5.694;2023-07-16T07:39:11;19.50;99.90
46676;DHT22;32412;51.478;5.694;2023-07-16T07:41:39;19.60;99.90
46676;DHT22;32412;51.478;5.694;2023-07-16T07:44:04;19.70;99.90
46676;DHT22;32412;51.478;5.694;2023-07-16T07:46:30;19.90;99.90
46676;DHT22;32412;51.478;5.694;2023-07-16T07:48:56;20.10;99.90
46676;DHT22;32412;51.478;5.694;2023-07-16T07:51:21;20.20;99.90
46676;DHT22;32412;51.478;5.694;2023-07-16T07:53:47;20.10;99.90
46676;DHT22;32412;51.478;5.694;2023-07-16T07:56:12;20.10;99.90
46676;DHT22;32412;51.478;5.694;2023-07-16T07:58:38;20.10;99.90
46676;DHT22;32412;51.478;5.694;2023-07-16T08:01:07;20.00;99.90
46676;DHT22;32412;51.478;5.694;2023-07-16T08:03:34;19.90;99.90
46676;DHT22;32412;51.478;5.694;2023-07-16T08:06:00;20.10;99.90
46676;DHT22;32412;51.478;5.694;2023-07-16T08:08:26;20.30;99.90
46676;DHT22;32412;51.478;5.694;2023-07-16T08:10:53;20.60;99.90
46676;DHT22;32412;51.478;5.694;2023-07-16T08:13:18;20.80;99.90
46676;DHT22;32412;51.478;5.694;2023-07-16T08:15:44;20.80;99.90
46676;DHT22;32412;51.478;5.694;2023-07-16T08:18:10;20.60;99.90
46676;DHT22;32412;51.478;5.694;2023-07-16T08:20:36;20.90;99.90
46676;DHT22;32412;51.478;5.694;2023-07-16T08:23:02;20.90;99.90
46676;DHT22;32412;51.478;5.694;2023-07-16T08:25:27;20.80;99.90
46676;DHT22;32412;51.478;5.694;2023-07-16T08:27:53;20.80;99.90
46676;DHT22;32412;51.478;5.694;2023-07-16T08:30:19;20.70;99.90
46676;DHT22;32412;51.478;5.694;2023-07-16T08:32:45;20.90;99.90
46676;DHT22;32412;51.478;5.694;2023-07-16T08:35:10;20.90;99.90
46676;DHT22;32412;51.478;5.694;2023-07-16T08:37:44;21.20;99.90
46676;DHT22;32412;51.478;5.694;2023-07-16T08:40:11;21.50;99.90
46676;DHT22;32412;51.478;5.694;2023-07-16T08:42:38;21.70;99.90
46676;DHT22;32412;51.478;5.694;2023-07-16T08:45:06;21.60;99.90
46676;DHT22;32412;51.478;5.694;2023-07-16T08:47:33;21.50;99.90
46676;DHT22;32412;51.478;5.694;2023-07-16T08:50:00;21.60;99.90
46676;DHT22;32412;51.478;5.694;2023-07-16T08:52:27;21.70;99.90
46676;DHT22;32412;51.478;5.694;2023-07-16T08:54:53;22.00;99.90
46676;DHT22;32412;51.478;5.694;2023-07-16T08:57:20;22.20;99.90
46676;DHT22;32412;51.478;5.694;2023-07-16T08:59:48;22.20;99.90
46676;DHT22;32412;51.478;5.694;2023-07-16T09:02:16;22.40;99.90
46676;DHT22;32412;51.478;5.694;2023-07-16T09:04:42;22.50;99.90
46676;DHT22;32412;51.478;5.694;2023-07-16T09:07:08;22.20;99.90
46676;DHT22;32412;51.478;5.694;2023-07-16T09:09:34;21.90;99.90
46676;DHT22;32412;51.478;5.694;2023-07-16T09:11:59;21.80;99.90
46676;DHT22;32412;51.478;5.694;2023-07-16T09:14:26;21.80;99.90
46676;DHT22;32412;51.478;5.694;2023-07-16T09:16:52;21.90;99.90
46676;DHT22;32412;51.478;5.694;2023-07-16T09:19:18;22.20;99.90
46676;DHT22;32412;51.478;5.694;2023-07-16T09:21:51;22.50;99.90
46676;DHT22;32412;51.478;5.694;2023-07-16T09:24:19;22.50;99.90
46676;DHT22;32412;51.478;5.694;2023-07-16T09:26:49;22.80;99.90
46676;DHT22;32412;51.478;5.694;2023-07-16T09:29:16;22.90;99.90
46676;DHT22;32412;51.478;5.694;2023-07-16T09:31:59;22.90;99.90
46676;DHT22;32412;51.478;5.694;2023-07-16T09:34:28;23.10;99.90
46676;DHT22;32412;51.478;5.694;2023-07-16T09:36:54;23.60;99.90
46676;DHT22;32412;51.478;5.694;2023-07-16T09:39:19;24.10;99.90
46676;DHT22;32412;51.478;5.694;2023-07-16T09:41:48;23.70;99.90
46676;DHT22;32412;51.478;5.694;2023-07-16T09:44:14;23.50;99.90
46676;DHT22;32412;51.478;5.694;2023-07-16T09:46:41;23.00;99.90
46676;DHT22;32412;51.478;5.694;2023-07-16T09:49:07;22.70;99.90
46676;DHT22;32412;51.478;5.694;2023-07-16T09:51:35;22.90;99.90
46676;DHT22;32412;51.478;5.694;2023-07-16T09:54:02;23.30;99.90
46676;DHT22;32412;51.478;5.694;2023-07-16T09:56:36;23.30;99.90
46676;DHT22;32412;51.478;5.694;2023-07-16T09:59:08;23.10;99.90
46676;DHT22;32412;51.478;5.694;2023-07-16T10:01:36;23.30;99.90
46676;DHT22;32412;51.478;5.694;2023-07-16T10:04:18;23.70;99.90
46676;DHT22;32412;51.478;5.694;2023-07-16T10:06:59;23.60;99.90
46676;DHT22;32412;51.478;5.694;2023-07-16T10:09:42;23.20;99.90
46676;DHT22;32412;51.478;5.694;2023-07-16T10:14:41;23.20;99.90
46676;DHT22;32412;51.478;5.694;2023-07-16T10:17:06;23.30;99.90
46676;DHT22;32412;51.478;5.694;2023-07-16T10:19:55;23.10;99.90
46676;DHT22;32412;51.478;5.694;2023-07-16T10:22:38;22.80;99.90
46676;DHT22;32412;51.478;5.694;2023-07-16T10:25:27;22.50;99.90
46676;DHT22;32412;51.478;5.694;2023-07-16T10:27:53;22.50;99.90
46676;DHT22;32412;51.478;5.694;2023-07-16T10:30:20;22.30;99.90
46676;DHT22;32412;51.478;5.694;2023-07-16T10:32:46;22.20;99.90
46676;DHT22;32412;51.478;5.694;2023-07-16T10:35:12;22.10;99.90
46676;DHT22;32412;51.478;5.694;2023-07-16T10:37:38;22.20;99.90
46676;DHT22;32412;51.478;5.694;2023-07-16T10:40:05;22.50;99.90
46676;DHT22;32412;51.478;5.694;2023-07-16T10:42:34;22.30;99.90
46676;DHT22;32412;51.478;5.694;2023-07-16T10:45:02;22.20;99.90
46676;DHT22;32412;51.478;5.694;2023-07-16T10:47:35;21.90;99.90
46676;DHT22;32412;51.478;5.694;2023-07-16T10:50:06;21.70;99.90
46676;DHT22;32412;51.478;5.694;2023-07-16T10:52:35;21.70;99.90
46676;DHT22;32412;51.478;5.694;2023-07-16T10:55:01;21.70;99.90
46676;DHT22;32412;51.478;5.694;2023-07-16T10:57:28;22.00;99.90
46676;DHT22;32412;51.478;5.694;2023-07-16T10:59:55;22.30;99.90
46676;DHT22;32412;51.478;5.694;2023-07-16T11:02:22;22.20;99.90
46676;DHT22;32412;51.478;5.694;2023-07-16T11:04:49;22.10;99.90
46676;DHT22;32412;51.478;5.694;2023-07-16T11:07:15;22.00;99.90
46676;DHT22;32412;51.478;5.694;2023-07-16T11:12:12;21.80;99.90
46676;DHT22;32412;51.478;5.694;2023-07-16T11:14:43;21.80;99.90
46676;DHT22;32412;51.478;5.694;2023-07-16T11:17:09;21.90;99.90
46676;DHT22;32412;51.478;5.694;2023-07-16T11:19:37;22.40;99.90
46676;DHT22;32412;51.478;5.694;2023-07-16T11:22:04;22.60;99.90
46676;DHT22;32412;51.478;5.694;2023-07-16T11:24:38;22.80;99.90
46676;DHT22;32412;51.478;5.694;2023-07-16T11:27:05;22.70;99.90
46676;DHT22;32412;51.478;5.694;2023-07-16T11:29:35;22.70;99.90
46676;DHT22;32412;51.478;5.694;2023-07-16T11:32:04;22.80;99.90
46676;DHT22;32412;51.478;5.694;2023-07-16T11:34:30;22.90;99.90
46676;DHT22;32412;51.478;5.694;2023-07-16T11:37:06;22.70;99.90
46676;DHT22;32412;51.478;5.694;2023-07-16T11:39:31;22.50;99.90
46676;DHT22;32412;51.478;5.694;2023-07-16T11:41:57;22.40;99.90
46676;DHT22;32412;51.478;5.694;2023-07-16T11:44:23;22.10;99.90
46676;DHT22;32412;51.478;5.694;2023-07-16T11:46:48;22.00;99.90
46676;DHT22;32412;51.478;5.694;2023-07-16T11:49:15;21.80;99.90
46676;DHT22;32412;51.478;5.694;2023-07-16T11:51:41;22.00;99.90
46676;DHT22;32412;51.478;5.694;2023-07-16T11:54:09;22.00;99.90
46676;DHT22;32412;51.478;5.694;2023-07-16T11:56:35;22.00;99.90
46676;DHT22;32412;51.478;5.694;2023-07-16T11:59:01;22.30;99.90
46676;DHT22;32412;51.478;5.694;2023-07-16T12:01:27;22.50;99.90
46676;DHT22;32412;51.478;5.694;2023-07-16T12:03:53;22.80;99.90
46676;DHT22;32412;51.478;5.694;2023-07-16T12:06:18;23.00;99.90
46676;DHT22;32412;51.478;5.694;2023-07-16T12:08:44;23.30;99.90
46676;DHT22;32412;51.478;5.694;2023-07-16T12:11:09;23.50;99.90
46676;DHT22;32412;51.478;5.694;2023-07-16T12:13:35;23.40;99.90
46676;DHT22;32412;51.478;5.694;2023-07-16T12:16:01;23.50;99.90
46676;DHT22;32412;51.478;5.694;2023-07-16T12:18:27;23.40;99.90
46676;DHT22;32412;51.478;5.694;2023-07-16T12:20:53;23.30;99.90
46676;DHT22;32412;51.478;5.694;2023-07-16T12:23:19;23.20;99.90
46676;DHT22;32412;51.478;5.694;2023-07-16T12:25:45;23.10;99.90
46676;DHT22;32412;51.478;5.694;2023-07-16T12:28:11;23.00;99.90
46676;DHT22;32412;51.478;5.694;2023-07-16T12:30:37;23.00;99.90
46676;DHT22;32412;51.478;5.694;2023-07-16T12:33:03;23.10;99.90
46676;DHT22;32412;51.478;5.694;2023-07-16T12:35:29;23.50;99.90
46676;DHT22;32412;51.478;5.694;2023-07-16T12:37:55;24.80;99.90
46676;DHT22;32412;51.478;5.694;2023-07-16T12:40:23;26.20;99.90
46676;DHT22;32412;51.478;5.694;2023-07-16T12:42:49;26.50;99.90
46676;DHT22;32412;51.478;5.694;2023-07-16T12:45:15;26.60;99.90
46676;DHT22;32412;51.478;5.694;2023-07-16T12:47:40;26.60;99.60
46676;DHT22;32412;51.478;5.694;2023-07-16T12:50:07;26.20;99.90
46676;DHT22;32412;51.478;5.694;2023-07-16T12:52:33;25.30;99.90
46676;DHT22;32412;51.478;5.694;2023-07-16T12:54:59;24.80;99.90
46676;DHT22;32412;51.478;5.694;2023-07-16T12:57:25;24.20;99.90
46676;DHT22;32412;51.478;5.694;2023-07-16T12:59:50;23.90;99.90
46676;DHT22;32412;51.478;5.694;2023-07-16T13:02:16;23.80;99.90
46676;DHT22;32412;51.478;5.694;2023-07-16T13:04:41;23.50;99.90
46676;DHT22;32412;51.478;5.694;2023-07-16T13:07:07;23.90;99.90
46676;DHT22;32412;51.478;5.694;2023-07-16T13:09:34;25.30;99.90
46676;DHT22;32412;51.478;5.694;2023-07-16T13:11:59;26.60;99.70
46676;DHT22;32412;51.478;5.694;2023-07-16T13:14:26;27.50;98.60
46676;DHT22;32412;51.478;5.694;2023-07-16T13:16:54;27.20;98.40
46676;DHT22;32412;51.478;5.694;2023-07-16T13:19:20;26.90;98.80
46676;DHT22;32412;51.478;5.694;2023-07-16T13:21:45;26.60;99.40
46676;DHT22;32412;51.478;5.694;2023-07-16T13:24:11;25.80;99.90
46676;DHT22;32412;51.478;5.694;2023-07-16T13:26:37;25.30;99.90
46676;DHT22;32412;51.478;5.694;2023-07-16T13:29:02;25.10;99.90
46676;DHT22;32412;51.478;5.694;2023-07-16T13:31:28;24.70;99.90
46676;DHT22;32412;51.478;5.694;2023-07-16T13:33:54;24.50;99.90
46676;DHT22;32412;51.478;5.694;2023-07-16T13:36:19;24.70;99.90
46676;DHT22;32412;51.478;5.694;2023-07-16T13:38:45;24.80;99.90
46676;DHT22;32412;51.478;5.694;2023-07-16T13:41:10;24.70;99.90
46676;DHT22;32412;51.478;5.694;2023-07-16T13:43:36;24.40;99.90
46676;DHT22;32412;51.478;5.694;2023-07-16T13:46:02;24.20;99.90
46676;DHT22;32412;51.478;5.694;2023-07-16T13:48:28;24.20;99.90
46676;DHT22;32412;51.478;5.694;2023-07-16T13:50:54;24.40;99.90
46676;DHT22;32412;51.478;5.694;2023-07-16T13:53:19;24.40;99.90
46676;DHT22;32412;51.478;5.694;2023-07-16T13:55:45;24.50;99.90
46676;DHT22;32412;51.478;5.694;2023-07-16T13:58:11;24.70;99.90
46676;DHT22;32412;51.478;5.694;2023-07-16T14:00:36;24.70;99.90
46676;DHT22;32412;51.478;5.694;2023-07-16T14:03:02;24.60;99.90
46676;DHT22;32412;51.478;5.694;2023-07-16T14:05:28;24.70;99.90
46676;DHT22;32412;51.478;5.694;2023-07-16T14:07:54;24.70;99.90
46676;DHT22;32412;51.478;5.694;2023-07-16T14:10:19;24.80;99.90
46676;DHT22;32412;51.478;5.694;2023-07-16T14:12:45;25.00;99.90
46676;DHT22;32412;51.478;5.694;2023-07-16T14:15:11;24.80;99.90
46676;DHT22;32412;51.478;5.694;2023-07-16T14:17:36;24.60;99.90
46676;DHT22;32412;51.478;5.694;2023-07-16T14:20:02;24.70;99.90
46676;DHT22;32412;51.478;5.694;2023-07-16T14:22:29;24.70;99.90
46676;DHT22;32412;51.478;5.694;2023-07-16T14:24:54;24.70;99.90
46676;DHT22;32412;51.478;5.694;2023-07-16T14:27:20;24.60;99.90
46676;DHT22;32412;51.478;5.694;2023-07-16T14:29:46;24.70;99.90
46676;DHT22;32412;51.478;5.694;2023-07-16T14:32:12;24.90;99.90
46676;DHT22;32412;51.478;5.694;2023-07-16T14:34:38;24.80;99.90
46676;DHT22;32412;51.478;5.694;2023-07-16T14:37:04;24.80;99.90
46676;DHT22;32412;51.478;5.694;2023-07-16T14:39:30;24.60;99.90
46676;DHT22;32412;51.478;5.694;2023-07-16T14:41:56;24.50;99.90
46676;DHT22;32412;51.478;5.694;2023-07-16T14:44:21;24.30;99.90
46676;DHT22;32412;51.478;5.694;2023-07-16T14:46:47;24.30;99.90
46676;DHT22;32412;51.478;5.694;2023-07-16T14:49:12;24.10;99.90
46676;DHT22;32412;51.478;5.694;2023-07-16T14:51:38;24.10;99.90
46676;DHT22;32412;51.478;5.694;2023-07-16T14:54:09;23.80;99.90
46676;DHT22;32412;51.478;5.694;2023-07-16T14:56:35;23.50;99.90
46676;DHT22;32412;51.478;5.694;2023-07-16T14:59:01;23.30;99.90
46676;DHT22;32412;51.478;5.694;2023-07-16T15:01:27;23.30;99.90
46676;DHT22;32412;51.478;5.694;2023-07-16T15:03:53;23.40;99.90
46676;DHT22;32412;51.478;5.694;2023-07-16T15:06:18;23.60;99.90
46676;DHT22;32412;51.478;5.694;2023-07-16T15:08:44;23.70;99.90
46676;DHT22;32412;51.478;5.694;2023-07-16T15:11:10;23.90;99.90
46676;DHT22;32412;51.478;5.694;2023-07-16T15:13:35;24.00;99.90
46676;DHT22;32412;51.478;5.694;2023-07-16T15:16:01;24.00;99.90
46676;DHT22;32412;51.478;5.694;2023-07-16T15:18:29;24.10;99.90
46676;DHT22;32412;51.478;5.694;2023-07-16T15:21:01;24.10;99.90
46676;DHT22;32412;51.478;5.694;2023-07-16T15:23:27;24.20;99.90
46676;DHT22;32412;51.478;5.694;2023-07-16T15:25:54;24.10;99.90
46676;DHT22;32412;51.478;5.694;2023-07-16T15:28:20;24.10;99.90
46676;DHT22;32412;51.478;5.694;2023-07-16T15:30:47;24.00;99.90
46676;DHT22;32412;51.478;5.694;2023-07-16T15:33:12;23.90;99.90
46676;DHT22;32412;51.478;5.694;2023-07-16T15:35:38;23.80;99.90
46676;DHT22;32412;51.478;5.694;2023-07-16T15:38:04;23.60;99.90